sensor_id;sensor_type;location;lat;lon;timestamp;P1;durP1;ratioP1;P2;durP2;ratioP2
11422;SDS011;5768;51.476;7.210;2023-04-24T00:02:32;0.95;;;0.60;;
11422;SDS011;5768;51.476;7.210;2023-04-24T00:07:37;0.70;;;0.70;;
11422;SDS011;5768;51.476;7.210;2023-04-24T00:12:41;1.03;;;0.70;;
11422;SDS011;5768;51.476;7.210;2023-04-24T00:17:44;1.03;;;0.90;;
11422;SDS011;5768;51.476;7.210;2023-04-24T00:22:46;1.30;;;1.05;;
11422;SDS011;5768;51.476;7.210;2023-04-24T00:27:50;0.73;;;0.70;;
11422;SDS011;5768;51.476;7.210;2023-04-24T00:32:53;1.58;;;1.20;;
11422;SDS011;5768;51.476;7.210;2023-04-24T00:37:55;1.63;;;1.13;;
11422;SDS011;5768;51.476;7.210;2023-04-24T00:42:59;1.25;;;1.15;;
11422;SDS011;5768;51.476;7.210;2023-04-24T00:48:01;0.90;;;0.90;;
11422;SDS011;5768;51.476;7.210;2023-04-24T00:53:04;1.00;;;1.00;;
11422;SDS011;5768;51.476;7.210;2023-04-24T00:58:07;2.23;;;1.10;;
11422;SDS011;5768;51.476;7.210;2023-04-24T01:03:10;1.00;;;1.00;;
11422;SDS011;5768;51.476;7.210;2023-04-24T01:08:13;2.53;;;1.20;;
11422;SDS011;5768;51.476;7.210;2023-04-24T01:13:17;1.40;;;1.30;;
11422;SDS011;5768;51.476;7.210;2023-04-24T01:18:20;2.23;;;1.50;;
11422;SDS011;5768;51.476;7.210;2023-04-24T01:23:24;2.17;;;1.33;;
11422;SDS011;5768;51.476;7.210;2023-04-24T01:28:27;1.23;;;1.17;;
11422;SDS011;5768;51.476;7.210;2023-04-24T01:33:30;1.33;;;1.23;;
11422;SDS011;5768;51.476;7.210;2023-04-24T01:38:34;1.60;;;1.50;;
11422;SDS011;5768;51.476;7.210;2023-04-24T01:43:36;1.83;;;1.40;;
11422;SDS011;5768;51.476;7.210;2023-04-24T01:48:39;1.97;;;1.70;;
11422;SDS011;5768;51.476;7.210;2023-04-24T01:53:44;1.80;;;1.70;;
11422;SDS011;5768;51.476;7.210;2023-04-24T01:58:46;2.10;;;1.90;;
11422;SDS011;5768;51.476;7.210;2023-04-24T02:03:50;3.70;;;1.83;;
11422;SDS011;5768;51.476;7.210;2023-04-24T02:08:54;2.43;;;2.20;;
11422;SDS011;5768;51.476;7.210;2023-04-24T02:13:57;2.77;;;2.50;;
11422;SDS011;5768;51.476;7.210;2023-04-24T02:18:59;3.27;;;2.87;;
11422;SDS011;5768;51.476;7.210;2023-04-24T02:24:03;3.93;;;3.57;;
11422;SDS011;5768;51.476;7.210;2023-04-24T02:29:05;4.77;;;3.90;;
11422;SDS011;5768;51.476;7.210;2023-04-24T02:34:08;4.40;;;3.80;;
11422;SDS011;5768;51.476;7.210;2023-04-24T02:39:12;5.43;;;4.53;;
11422;SDS011;5768;51.476;7.210;2023-04-24T02:44:16;4.33;;;3.93;;
11422;SDS011;5768;51.476;7.210;2023-04-24T02:49:18;5.60;;;5.10;;
11422;SDS011;5768;51.476;7.210;2023-04-24T02:54:22;5.87;;;3.80;;
11422;SDS011;5768;51.476;7.210;2023-04-24T02:59:25;7.10;;;5.87;;
11422;SDS011;5768;51.476;7.210;2023-04-24T03:04:29;7.97;;;6.00;;
11422;SDS011;5768;51.476;7.210;2023-04-24T03:09:33;8.77;;;6.40;;
11422;SDS011;5768;51.476;7.210;2023-04-24T03:14:36;6.33;;;5.73;;
11422;SDS011;5768;51.476;7.210;2023-04-24T03:19:39;7.13;;;6.20;;
11422;SDS011;5768;51.476;7.210;2023-04-24T03:24:42;9.20;;;6.97;;
11422;SDS011;5768;51.476;7.210;2023-04-24T03:29:44;6.77;;;6.07;;
11422;SDS011;5768;51.476;7.210;2023-04-24T03:34:46;9.17;;;6.13;;
11422;SDS011;5768;51.476;7.210;2023-04-24T03:39:50;4.40;;;4.00;;
11422;SDS011;5768;51.476;7.210;2023-04-24T03:44:52;8.87;;;6.90;;
11422;SDS011;5768;51.476;7.210;2023-04-24T03:49:54;8.30;;;6.73;;
11422;SDS011;5768;51.476;7.210;2023-04-24T03:54:58;9.03;;;6.37;;
11422;SDS011;5768;51.476;7.210;2023-04-24T04:00:01;9.23;;;7.40;;
11422;SDS011;5768;51.476;7.210;2023-04-24T04:05:06;7.87;;;6.77;;
11422;SDS011;5768;51.476;7.210;2023-04-24T04:10:12;8.87;;;7.30;;
11422;SDS011;5768;51.476;7.210;2023-04-24T04:15:14;8.57;;;7.53;;
11422;SDS011;5768;51.476;7.210;2023-04-24T04:20:17;6.63;;;6.00;;
11422;SDS011;5768;51.476;7.210;2023-04-24T04:25:20;8.57;;;7.20;;
11422;SDS011;5768;51.476;7.210;2023-04-24T04:30:23;7.10;;;6.40;;
11422;SDS011;5768;51.476;7.210;2023-04-24T04:35:26;9.00;;;7.43;;
11422;SDS011;5768;51.476;7.210;2023-04-24T04:40:29;7.77;;;7.00;;
11422;SDS011;5768;51.476;7.210;2023-04-24T04:45:32;9.40;;;7.43;;
11422;SDS011;5768;51.476;7.210;2023-04-24T04:50:34;7.83;;;6.70;;
11422;SDS011;5768;51.476;7.210;2023-04-24T04:55:38;12.37;;;6.83;;
11422;SDS011;5768;51.476;7.210;2023-04-24T05:00:40;8.17;;;7.37;;
11422;SDS011;5768;51.476;7.210;2023-04-24T05:05:42;8.37;;;6.53;;
11422;SDS011;5768;51.476;7.210;2023-04-24T05:10:46;8.60;;;5.87;;
11422;SDS011;5768;51.476;7.210;2023-04-24T05:15:48;8.43;;;6.90;;
11422;SDS011;5768;51.476;7.210;2023-04-24T05:20:50;7.97;;;5.10;;
11422;SDS011;5768;51.476;7.210;2023-04-24T05:25:54;9.63;;;6.57;;
11422;SDS011;5768;51.476;7.210;2023-04-24T05:30:56;7.20;;;6.43;;
11422;SDS011;5768;51.476;7.210;2023-04-24T05:35:59;9.13;;;7.87;;
11422;SDS011;5768;51.476;7.210;2023-04-24T05:41:03;7.90;;;5.10;;
11422;SDS011;5768;51.476;7.210;2023-04-24T05:46:05;7.10;;;6.13;;
11422;SDS011;5768;51.476;7.210;2023-04-24T05:51:08;6.20;;;4.53;;
11422;SDS011;5768;51.476;7.210;2023-04-24T05:56:12;7.70;;;7.03;;
11422;SDS011;5768;51.476;7.210;2023-04-24T06:01:15;8.30;;;7.30;;
11422;SDS011;5768;51.476;7.210;2023-04-24T06:06:18;7.20;;;6.60;;
11422;SDS011;5768;51.476;7.210;2023-04-24T06:11:22;5.53;;;4.73;;
11422;SDS011;5768;51.476;7.210;2023-04-24T06:16:25;7.30;;;6.30;;
11422;SDS011;5768;51.476;7.210;2023-04-24T06:21:27;5.03;;;4.53;;
11422;SDS011;5768;51.476;7.210;2023-04-24T06:26:30;3.93;;;3.50;;
11422;SDS011;5768;51.476;7.210;2023-04-24T06:31:32;5.87;;;5.30;;
11422;SDS011;5768;51.476;7.210;2023-04-24T06:36:37;5.17;;;4.67;;
11422;SDS011;5768;51.476;7.210;2023-04-24T06:41:40;4.03;;;3.70;;
11422;SDS011;5768;51.476;7.210;2023-04-24T06:46:43;5.30;;;4.77;;
11422;SDS011;5768;51.476;7.210;2023-04-24T06:51:45;4.90;;;4.50;;
11422;SDS011;5768;51.476;7.210;2023-04-24T06:56:48;4.90;;;4.50;;
11422;SDS011;5768;51.476;7.210;2023-04-24T07:01:52;3.20;;;2.90;;
11422;SDS011;5768;51.476;7.210;2023-04-24T07:06:54;5.63;;;5.00;;
11422;SDS011;5768;51.476;7.210;2023-04-24T07:11:59;5.13;;;4.63;;
11422;SDS011;5768;51.476;7.210;2023-04-24T07:17:02;3.10;;;2.63;;
11422;SDS011;5768;51.476;7.210;2023-04-24T07:22:04;2.90;;;2.70;;
11422;SDS011;5768;51.476;7.210;2023-04-24T07:27:08;3.60;;;3.30;;
11422;SDS011;5768;51.476;7.210;2023-04-24T07:32:10;2.53;;;1.77;;
11422;SDS011;5768;51.476;7.210;2023-04-24T07:37:12;3.07;;;2.40;;
11422;SDS011;5768;51.476;7.210;2023-04-24T07:42:16;2.40;;;2.20;;
11422;SDS011;5768;51.476;7.210;2023-04-24T07:47:18;2.63;;;2.20;;
11422;SDS011;5768;51.476;7.210;2023-04-24T07:52:21;2.23;;;2.03;;
11422;SDS011;5768;51.476;7.210;2023-04-24T07:57:24;3.20;;;1.90;;
11422;SDS011;5768;51.476;7.210;2023-04-24T08:02:27;1.77;;;1.30;;
11422;SDS011;5768;51.476;7.210;2023-04-24T08:07:29;0.93;;;0.93;;
11422;SDS011;5768;51.476;7.210;2023-04-24T08:12:33;0.50;;;0.50;;
11422;SDS011;5768;51.476;7.210;2023-04-24T08:17:35;1.23;;;0.53;;
11422;SDS011;5768;51.476;7.210;2023-04-24T08:22:37;0.60;;;0.60;;
11422;SDS011;5768;51.476;7.210;2023-04-24T08:27:40;3.13;;;1.20;;
11422;SDS011;5768;51.476;7.210;2023-04-24T08:32:43;0.70;;;0.70;;
11422;SDS011;5768;51.476;7.210;2023-04-24T08:37:45;0.97;;;0.80;;
11422;SDS011;5768;51.476;7.210;2023-04-24T08:42:49;0.80;;;0.77;;
11422;SDS011;5768;51.476;7.210;2023-04-24T08:47:55;0.93;;;0.70;;
11422;SDS011;5768;51.476;7.210;2023-04-24T08:53:00;1.17;;;0.97;;
11422;SDS011;5768;51.476;7.210;2023-04-24T08:58:04;3.63;;;1.40;;
11422;SDS011;5768;51.476;7.210;2023-04-24T09:03:06;2.00;;;1.80;;
11422;SDS011;5768;51.476;7.210;2023-04-24T09:08:09;1.17;;;1.07;;
11422;SDS011;5768;51.476;7.210;2023-04-24T09:13:14;1.50;;;1.40;;
11422;SDS011;5768;51.476;7.210;2023-04-24T09:18:17;1.97;;;1.87;;
11422;SDS011;5768;51.476;7.210;2023-04-24T09:23:20;2.17;;;1.70;;
11422;SDS011;5768;51.476;7.210;2023-04-24T09:28:26;1.73;;;1.63;;
11422;SDS011;5768;51.476;7.210;2023-04-24T09:33:31;2.03;;;1.60;;
11422;SDS011;5768;51.476;7.210;2023-04-24T09:38:34;2.00;;;1.80;;
11422;SDS011;5768;51.476;7.210;2023-04-24T09:43:40;2.63;;;1.53;;
11422;SDS011;5768;51.476;7.210;2023-04-24T09:48:42;2.70;;;1.60;;
11422;SDS011;5768;51.476;7.210;2023-04-24T09:53:45;1.50;;;1.40;;
11422;SDS011;5768;51.476;7.210;2023-04-24T09:58:49;2.10;;;1.90;;
11422;SDS011;5768;51.476;7.210;2023-04-24T10:03:51;2.80;;;2.10;;
11422;SDS011;5768;51.476;7.210;2023-04-24T10:08:53;3.07;;;2.30;;
11422;SDS011;5768;51.476;7.210;2023-04-24T10:13:59;1.70;;;1.60;;
11422;SDS011;5768;51.476;7.210;2023-04-24T10:19:02;3.90;;;1.63;;
11422;SDS011;5768;51.476;7.210;2023-04-24T10:24:05;2.87;;;2.63;;
11422;SDS011;5768;51.476;7.210;2023-04-24T10:29:11;2.30;;;1.83;;
11422;SDS011;5768;51.476;7.210;2023-04-24T10:34:16;4.90;;;3.37;;
11422;SDS011;5768;51.476;7.210;2023-04-24T10:39:21;3.30;;;3.00;;
11422;SDS011;5768;51.476;7.210;2023-04-24T10:44:25;3.30;;;3.00;;
11422;SDS011;5768;51.476;7.210;2023-04-24T10:49:38;5.30;;;3.57;;
11422;SDS011;5768;51.476;7.210;2023-04-24T10:54:41;9.53;;;3.77;;
11422;SDS011;5768;51.476;7.210;2023-04-24T10:59:48;5.53;;;3.03;;
11422;SDS011;5768;51.476;7.210;2023-04-24T11:04:53;7.97;;;4.47;;
11422;SDS011;5768;51.476;7.210;2023-04-24T11:09:57;5.70;;;3.87;;
11422;SDS011;5768;51.476;7.210;2023-04-24T11:15:03;6.30;;;3.47;;
11422;SDS011;5768;51.476;7.210;2023-04-24T11:20:15;6.03;;;4.37;;
11422;SDS011;5768;51.476;7.210;2023-04-24T11:25:20;9.23;;;4.13;;
11422;SDS011;5768;51.476;7.210;2023-04-24T11:30:25;8.20;;;4.60;;
11422;SDS011;5768;51.476;7.210;2023-04-24T11:35:35;7.63;;;4.50;;
11422;SDS011;5768;51.476;7.210;2023-04-24T11:40:41;4.50;;;2.80;;
11422;SDS011;5768;51.476;7.210;2023-04-24T11:45:48;7.77;;;4.33;;
11422;SDS011;5768;51.476;7.210;2023-04-24T11:50:50;5.33;;;3.53;;
11422;SDS011;5768;51.476;7.210;2023-04-24T11:55:53;7.33;;;5.00;;
11422;SDS011;5768;51.476;7.210;2023-04-24T12:00:57;9.20;;;4.57;;
11422;SDS011;5768;51.476;7.210;2023-04-24T12:06:04;5.00;;;2.53;;
11422;SDS011;5768;51.476;7.210;2023-04-24T12:11:07;3.60;;;2.90;;
11422;SDS011;5768;51.476;7.210;2023-04-24T12:16:11;7.93;;;3.53;;
11422;SDS011;5768;51.476;7.210;2023-04-24T12:21:14;5.53;;;2.70;;
11422;SDS011;5768;51.476;7.210;2023-04-24T12:26:21;6.40;;;3.00;;
11422;SDS011;5768;51.476;7.210;2023-04-24T12:31:26;8.07;;;3.13;;
11422;SDS011;5768;51.476;7.210;2023-04-24T12:36:30;5.43;;;3.20;;
11422;SDS011;5768;51.476;7.210;2023-04-24T12:41:32;7.97;;;3.03;;
11422;SDS011;5768;51.476;7.210;2023-04-24T12:46:51;4.00;;;2.60;;
11422;SDS011;5768;51.476;7.210;2023-04-24T12:51:53;4.53;;;2.43;;
11422;SDS011;5768;51.476;7.210;2023-04-24T12:56:55;4.40;;;2.97;;
11422;SDS011;5768;51.476;7.210;2023-04-24T13:01:59;6.10;;;3.23;;
11422;SDS011;5768;51.476;7.210;2023-04-24T13:07:01;5.53;;;2.53;;
11422;SDS011;5768;51.476;7.210;2023-04-24T13:12:04;3.17;;;2.30;;
11422;SDS011;5768;51.476;7.210;2023-04-24T13:17:08;5.90;;;2.23;;
11422;SDS011;5768;51.476;7.210;2023-04-24T13:22:12;3.37;;;1.93;;
11422;SDS011;5768;51.476;7.210;2023-04-24T13:27:14;3.37;;;2.20;;
11422;SDS011;5768;51.476;7.210;2023-04-24T13:32:18;3.20;;;1.80;;
11422;SDS011;5768;51.476;7.210;2023-04-24T13:37:21;1.65;;;1.45;;
11422;SDS011;5768;51.476;7.210;2023-04-24T13:42:23;2.13;;;1.60;;
11422;SDS011;5768;51.476;7.210;2023-04-24T13:47:27;1.27;;;1.17;;
11422;SDS011;5768;51.476;7.210;2023-04-24T13:52:29;2.17;;;1.30;;
11422;SDS011;5768;51.476;7.210;2023-04-24T13:57:31;3.23;;;1.47;;
11422;SDS011;5768;51.476;7.210;2023-04-24T14:02:35;1.53;;;1.27;;
11422;SDS011;5768;51.476;7.210;2023-04-24T14:07:38;3.03;;;2.10;;
11422;SDS011;5768;51.476;7.210;2023-04-24T14:12:41;1.77;;;1.30;;
11422;SDS011;5768;51.476;7.210;2023-04-24T14:17:44;2.77;;;1.30;;
11422;SDS011;5768;51.476;7.210;2023-04-24T14:22:47;2.70;;;1.25;;
11422;SDS011;5768;51.476;7.210;2023-04-24T14:27:49;2.72;;;1.40;;
11422;SDS011;5768;51.476;7.210;2023-04-24T14:32:53;2.08;;;1.23;;
11422;SDS011;5768;51.476;7.210;2023-04-24T14:37:55;2.30;;;1.40;;
11422;SDS011;5768;51.476;7.210;2023-04-24T14:42:57;1.55;;;1.20;;
11422;SDS011;5768;51.476;7.210;2023-04-24T14:48:01;3.17;;;1.50;;
11422;SDS011;5768;51.476;7.210;2023-04-24T14:53:03;1.90;;;1.50;;
11422;SDS011;5768;51.476;7.210;2023-04-24T14:58:06;2.70;;;1.77;;
11422;SDS011;5768;51.476;7.210;2023-04-24T15:03:09;2.53;;;1.40;;
11422;SDS011;5768;51.476;7.210;2023-04-24T15:08:12;4.87;;;1.80;;
11422;SDS011;5768;51.476;7.210;2023-04-24T15:13:14;2.33;;;1.30;;
11422;SDS011;5768;51.476;7.210;2023-04-24T15:18:18;3.53;;;1.50;;
11422;SDS011;5768;51.476;7.210;2023-04-24T15:23:20;1.93;;;1.53;;
11422;SDS011;5768;51.476;7.210;2023-04-24T15:28:22;2.38;;;1.90;;
11422;SDS011;5768;51.476;7.210;2023-04-24T15:33:27;2.10;;;1.67;;
11422;SDS011;5768;51.476;7.210;2023-04-24T15:38:30;2.10;;;1.50;;
11422;SDS011;5768;51.476;7.210;2023-04-24T15:43:32;2.85;;;1.50;;
11422;SDS011;5768;51.476;7.210;2023-04-24T15:48:36;2.53;;;1.52;;
11422;SDS011;5768;51.476;7.210;2023-04-24T15:53:41;2.50;;;1.50;;
11422;SDS011;5768;51.476;7.210;2023-04-24T15:58:43;1.63;;;1.20;;
11422;SDS011;5768;51.476;7.210;2023-04-24T16:03:47;1.33;;;1.10;;
11422;SDS011;5768;51.476;7.210;2023-04-24T16:08:49;1.08;;;1.00;;
11422;SDS011;5768;51.476;7.210;2023-04-24T16:13:52;1.20;;;1.10;;
11422;SDS011;5768;51.476;7.210;2023-04-24T16:18:55;2.00;;;1.25;;
11422;SDS011;5768;51.476;7.210;2023-04-24T16:23:57;1.38;;;1.20;;
11422;SDS011;5768;51.476;7.210;2023-04-24T16:29:00;3.05;;;1.20;;
11422;SDS011;5768;51.476;7.210;2023-04-24T16:34:03;1.88;;;1.30;;
11422;SDS011;5768;51.476;7.210;2023-04-24T16:39:06;3.70;;;1.50;;
11422;SDS011;5768;51.476;7.210;2023-04-24T16:44:08;2.50;;;1.40;;
11422;SDS011;5768;51.476;7.210;2023-04-24T16:49:14;1.25;;;1.10;;
11422;SDS011;5768;51.476;7.210;2023-04-24T16:54:16;2.88;;;1.60;;
11422;SDS011;5768;51.476;7.210;2023-04-24T16:59:19;1.92;;;1.50;;
11422;SDS011;5768;51.476;7.210;2023-04-24T17:04:23;1.20;;;1.05;;
11422;SDS011;5768;51.476;7.210;2023-04-24T17:09:26;1.98;;;1.10;;
11422;SDS011;5768;51.476;7.210;2023-04-24T17:14:28;3.60;;;1.60;;
11422;SDS011;5768;51.476;7.210;2023-04-24T17:19:32;1.50;;;1.35;;
11422;SDS011;5768;51.476;7.210;2023-04-24T17:24:34;3.53;;;1.87;;
11422;SDS011;5768;51.476;7.210;2023-04-24T17:29:37;3.07;;;2.10;;
11422;SDS011;5768;51.476;7.210;2023-04-24T17:34:40;2.63;;;1.70;;
11422;SDS011;5768;51.476;7.210;2023-04-24T17:39:42;2.37;;;1.70;;
11422;SDS011;5768;51.476;7.210;2023-04-24T17:44:44;2.67;;;1.63;;
11422;SDS011;5768;51.476;7.210;2023-04-24T17:49:48;3.73;;;2.20;;
11422;SDS011;5768;51.476;7.210;2023-04-24T17:54:51;5.20;;;2.03;;
11422;SDS011;5768;51.476;7.210;2023-04-24T17:59:54;2.97;;;2.17;;
11422;SDS011;5768;51.476;7.210;2023-04-24T18:04:57;3.57;;;2.20;;
11422;SDS011;5768;51.476;7.210;2023-04-24T18:10:00;2.63;;;1.70;;
11422;SDS011;5768;51.476;7.210;2023-04-24T18:15:03;5.83;;;2.30;;
11422;SDS011;5768;51.476;7.210;2023-04-24T18:20:08;5.30;;;2.40;;
11422;SDS011;5768;51.476;7.210;2023-04-24T18:25:11;3.97;;;2.50;;
11422;SDS011;5768;51.476;7.210;2023-04-24T18:30:14;7.23;;;2.70;;
11422;SDS011;5768;51.476;7.210;2023-04-24T18:35:18;4.60;;;2.60;;
11422;SDS011;5768;51.476;7.210;2023-04-24T18:40:21;5.17;;;2.60;;
11422;SDS011;5768;51.476;7.210;2023-04-24T18:45:23;5.50;;;2.53;;
11422;SDS011;5768;51.476;7.210;2023-04-24T18:50:31;5.37;;;2.03;;
11422;SDS011;5768;51.476;7.210;2023-04-24T18:55:33;6.30;;;2.57;;
11422;SDS011;5768;51.476;7.210;2023-04-24T19:00:36;4.07;;;2.47;;
11422;SDS011;5768;51.476;7.210;2023-04-24T19:05:39;4.43;;;2.50;;
11422;SDS011;5768;51.476;7.210;2023-04-24T19:10:41;4.03;;;2.60;;
11422;SDS011;5768;51.476;7.210;2023-04-24T19:15:44;4.03;;;2.50;;
11422;SDS011;5768;51.476;7.210;2023-04-24T19:20:47;4.87;;;2.57;;
11422;SDS011;5768;51.476;7.210;2023-04-24T19:25:50;4.83;;;2.73;;
11422;SDS011;5768;51.476;7.210;2023-04-24T19:30:52;4.17;;;2.40;;
11422;SDS011;5768;51.476;7.210;2023-04-24T19:35:59;7.00;;;2.90;;
11422;SDS011;5768;51.476;7.210;2023-04-24T19:41:01;4.57;;;2.70;;
11422;SDS011;5768;51.476;7.210;2023-04-24T19:46:03;6.80;;;3.20;;
11422;SDS011;5768;51.476;7.210;2023-04-24T19:51:07;6.27;;;3.20;;
11422;SDS011;5768;51.476;7.210;2023-04-24T19:56:10;5.13;;;2.97;;
11422;SDS011;5768;51.476;7.210;2023-04-24T20:01:12;5.00;;;3.20;;
11422;SDS011;5768;51.476;7.210;2023-04-24T20:06:15;4.67;;;3.27;;
11422;SDS011;5768;51.476;7.210;2023-04-24T20:11:18;7.50;;;3.70;;
11422;SDS011;5768;51.476;7.210;2023-04-24T20:16:20;5.87;;;3.60;;
11422;SDS011;5768;51.476;7.210;2023-04-24T20:21:24;5.37;;;3.23;;
11422;SDS011;5768;51.476;7.210;2023-04-24T20:26:27;5.93;;;3.33;;
11422;SDS011;5768;51.476;7.210;2023-04-24T20:31:30;7.27;;;3.87;;
11422;SDS011;5768;51.476;7.210;2023-04-24T20:36:33;5.90;;;3.47;;
11422;SDS011;5768;51.476;7.210;2023-04-24T20:41:36;4.87;;;3.03;;
11422;SDS011;5768;51.476;7.210;2023-04-24T20:46:38;4.83;;;3.60;;
11422;SDS011;5768;51.476;7.210;2023-04-24T20:51:42;5.37;;;3.30;;
11422;SDS011;5768;51.476;7.210;2023-04-24T20:56:44;6.07;;;3.60;;
11422;SDS011;5768;51.476;7.210;2023-04-24T21:01:47;6.00;;;3.50;;
11422;SDS011;5768;51.476;7.210;2023-04-24T21:06:51;8.67;;;3.80;;
11422;SDS011;5768;51.476;7.210;2023-04-24T21:11:53;8.27;;;3.83;;
11422;SDS011;5768;51.476;7.210;2023-04-24T21:16:56;6.10;;;3.70;;
11422;SDS011;5768;51.476;7.210;2023-04-24T21:22:01;7.17;;;3.73;;
11422;SDS011;5768;51.476;7.210;2023-04-24T21:27:03;6.77;;;4.00;;
11422;SDS011;5768;51.476;7.210;2023-04-24T21:32:06;6.73;;;4.10;;
11422;SDS011;5768;51.476;7.210;2023-04-24T21:37:10;6.93;;;4.10;;
11422;SDS011;5768;51.476;7.210;2023-04-24T21:42:14;7.07;;;4.17;;
11422;SDS011;5768;51.476;7.210;2023-04-24T21:47:16;8.37;;;4.20;;
11422;SDS011;5768;51.476;7.210;2023-04-24T21:52:20;7.10;;;4.20;;
11422;SDS011;5768;51.476;7.210;2023-04-24T21:57:22;7.07;;;4.00;;
11422;SDS011;5768;51.476;7.210;2023-04-24T22:02:25;10.33;;;4.40;;
11422;SDS011;5768;51.476;7.210;2023-04-24T22:07:29;8.13;;;4.47;;
11422;SDS011;5768;51.476;7.210;2023-04-24T22:12:35;11.13;;;4.10;;
11422;SDS011;5768;51.476;7.210;2023-04-24T22:17:37;7.97;;;4.20;;
11422;SDS011;5768;51.476;7.210;2023-04-24T22:22:41;6.53;;;4.50;;
11422;SDS011;5768;51.476;7.210;2023-04-24T22:27:44;9.87;;;3.83;;
11422;SDS011;5768;51.476;7.210;2023-04-24T22:32:46;8.37;;;4.70;;
11422;SDS011;5768;51.476;7.210;2023-04-24T22:37:54;9.37;;;4.30;;
11422;SDS011;5768;51.476;7.210;2023-04-24T22:42:57;16.37;;;4.87;;
11422;SDS011;5768;51.476;7.210;2023-04-24T22:47:59;7.67;;;4.30;;
11422;SDS011;5768;51.476;7.210;2023-04-24T22:53:03;7.53;;;4.03;;
11422;SDS011;5768;51.476;7.210;2023-04-24T22:58:05;8.83;;;4.23;;
11422;SDS011;5768;51.476;7.210;2023-04-24T23:03:07;11.27;;;5.07;;
11422;SDS011;5768;51.476;7.210;2023-04-24T23:08:11;8.33;;;4.30;;
11422;SDS011;5768;51.476;7.210;2023-04-24T23:13:13;6.70;;;3.80;;
11422;SDS011;5768;51.476;7.210;2023-04-24T23:18:16;11.13;;;4.53;;
11422;SDS011;5768;51.476;7.210;2023-04-24T23:23:22;11.90;;;4.40;;
11422;SDS011;5768;51.476;7.210;2023-04-24T23:28:28;8.63;;;4.27;;
11422;SDS011;5768;51.476;7.210;2023-04-24T23:33:30;9.47;;;4.30;;
11422;SDS011;5768;51.476;7.210;2023-04-24T23:38:34;9.33;;;4.57;;
11422;SDS011;5768;51.476;7.210;2023-04-24T23:43:36;9.20;;;4.37;;
11422;SDS011;5768;51.476;7.210;2023-04-24T23:48:39;8.27;;;4.00;;
11422;SDS011;5768;51.476;7.210;2023-04-24T23:53:42;8.03;;;4.43;;
11422;SDS011;5768;51.476;7.210;2023-04-24T23:58:44;7.63;;;4.37;;
